Time;durP1;ratioP1;P1;durP2;ratioP2;P2;SDS_P1;SDS_P2;PMS_P1;PMS_P2;Temp;Humidity;BMP_temperature;BMP_pressure;BME280_temperature;BME280_humidity;BME280_pressure;Samples;Min_cycle;Max_cycle;Signal;HPM_P1;HPM_P2
2021/04/28 00:01:22;;;;;;;8.45;6.03;;;;;;;-139.48;100.00;61774.03;5020816;28;20080;-68
2021/04/28 00:04:06;;;;;;;11.68;5.32;;;;;;;-139.48;100.00;61774.03;5020655;28;20107;-68
2021/04/28 00:06:50;;;;;;;10.30;6.25;;;;;;;-139.48;100.00;61774.03;5020273;28;20410;-68
2021/04/28 00:09:35;;;;;;;11.52;6.03;;;;;;;-139.48;100.00;61774.03;5020433;28;20098;-68
2021/04/28 00:12:19;;;;;;;12.77;5.90;;;;;;;-139.48;100.00;61774.03;5020340;28;20098;-68
2021/04/28 00:15:24;;;;;;;10.13;6.10;;;;;;;-139.48;100.00;61774.03;5020342;28;20045;-68
2021/04/28 00:18:08;;;;;;;8.82;5.80;;;;;;;-139.48;100.00;61774.03;5020360;28;20509;-68
2021/04/28 00:20:52;;;;;;;12.02;6.45;;;;;;;-139.48;100.00;61774.03;5020293;28;20506;-68
2021/04/28 00:23:36;;;;;;;11.40;5.93;;;;;;;-139.48;100.00;61774.03;5020238;28;20060;-68
2021/04/28 00:26:20;;;;;;;11.82;7.18;;;;;;;-139.48;100.00;61774.03;5020183;28;20099;-68
2021/04/28 00:29:04;;;;;;;;;;;;;;;-139.48;100.00;61774.03;5020476;28;20076;-66
2021/04/28 00:31:48;;;;;;;13.15;6.55;;;;;;;-139.48;100.00;61774.03;5019947;28;20010;-69
2021/04/28 00:34:32;;;;;;;9.05;6.15;;;;;;;-139.48;100.00;61774.03;5019675;28;20462;-69
2021/04/28 00:37:16;;;;;;;10.35;6.55;;;;;;;-139.48;100.00;61774.03;5020007;28;20136;-67
2021/04/28 00:40:00;;;;;;;14.40;6.38;;;;;;;-139.48;100.00;61774.03;5019641;28;20099;-69
2021/04/28 00:42:45;;;;;;;10.80;5.95;;;;;;;-139.48;100.00;61774.03;5019560;28;20091;-69
2021/04/28 00:45:33;;;;;;;13.82;6.65;;;;;;;-139.48;100.00;61774.03;5020091;28;20043;-69
2021/04/28 00:48:17;;;;;;;11.05;6.05;;;;;;;-139.48;100.00;61774.03;5019853;28;20095;-69
2021/04/28 00:51:02;;;;;;;9.25;6.00;;;;;;;-139.48;100.00;61774.03;5019683;28;20071;-69
2021/04/28 00:53:46;;;;;;;11.68;6.50;;;;;;;-139.48;100.00;61774.03;5019369;28;20536;-68
2021/04/28 00:56:30;;;;;;;11.40;6.30;;;;;;;-139.48;100.00;61774.03;5019883;28;20119;-69
2021/04/28 00:59:15;;;;;;;12.68;5.97;;;;;;;-139.48;100.00;61774.03;5019807;28;20044;-69
2021/04/28 01:02:00;;;;;;;12.07;5.65;;;;;;;-139.48;100.00;61774.03;5019419;28;20053;-68
2021/04/28 01:04:44;;;;;;;8.85;5.97;;;;;;;-139.48;100.00;61774.03;5019485;28;20099;-69
2021/04/28 01:07:27;;;;;;;13.07;6.68;;;;;;;-139.48;100.00;61774.03;5019208;28;20188;-69
2021/04/28 01:10:36;;;;;;;9.15;5.72;;;;;;;-139.48;100.00;61774.03;5019250;28;20076;-67
2021/04/28 01:13:21;;;;;;;13.77;5.70;;;;;;;-139.48;100.00;61774.03;5019043;28;20489;-69
2021/04/28 01:16:05;;;;;;;10.60;6.53;;;;;;;-139.48;100.00;61774.03;5019023;28;20096;-70
2021/04/28 01:18:49;;;;;;;;;;;;;;;-139.48;100.00;61774.03;5019906;28;20052;-67
2021/04/28 01:21:33;;;;;;;10.63;6.80;;;;;;;-139.48;100.00;61774.03;5019035;28;19920;-68
2021/04/28 01:24:17;;;;;;;;;;;;;;;-139.48;100.00;61774.03;5019665;28;20138;-69
2021/04/28 01:27:06;;;;;;;9.50;5.97;;;;;;;-139.48;100.00;61774.03;5019076;28;19920;-69
2021/04/28 01:29:51;;;;;;;8.05;5.47;;;;;;;-139.48;100.00;61774.03;5019087;28;20135;-68
2021/04/28 01:32:37;;;;;;;8.60;5.57;;;;;;;-139.48;100.00;61774.03;5018595;28;20045;-69
2021/04/28 01:35:21;;;;;;;10.48;6.07;;;;;;;-139.48;100.00;61774.03;5018945;28;20095;-69
2021/04/28 01:38:06;;;;;;;9.38;6.03;;;;;;;-139.48;100.00;61774.03;5018899;28;20406;-69
2021/04/28 01:40:51;;;;;;;9.75;6.35;;;;;;;-139.48;100.00;61774.03;5018770;28;20458;-68
2021/04/28 01:43:36;;;;;;;12.07;5.88;;;;;;;-139.48;100.00;61774.03;5018804;28;20068;-69
2021/04/28 01:46:24;;;;;;;10.75;6.35;;;;;;;-139.48;100.00;61774.03;5018443;28;20052;-69
2021/04/28 01:49:09;;;;;;;15.23;5.85;;;;;;;-139.48;100.00;61774.03;5018573;28;20403;-68
2021/04/28 01:51:55;;;;;;;13.07;5.88;;;;;;;-139.48;100.00;61774.03;5018649;28;20525;-69
2021/04/28 01:54:39;;;;;;;8.48;5.30;;;;;;;-139.48;100.00;61774.03;5018443;28;20072;-69
2021/04/28 01:57:25;;;;;;;7.63;5.45;;;;;;;-139.48;100.00;61774.03;5018616;28;20052;-68
2021/04/28 02:00:12;;;;;;;11.50;6.30;;;;;;;-139.48;100.00;61774.03;5018675;28;20044;-69
2021/04/28 02:02:56;;;;;;;9.10;5.50;;;;;;;-139.48;100.00;61774.03;5018483;28;20195;-69
2021/04/28 02:05:40;;;;;;;10.68;5.80;;;;;;;-139.48;100.00;61774.03;5018500;28;20505;-69
2021/04/28 02:08:24;;;;;;;7.78;5.15;;;;;;;-139.48;100.00;61774.03;5018321;28;20529;-69
2021/04/28 02:11:08;;;;;;;8.40;5.50;;;;;;;-139.48;100.00;61774.03;5018427;28;20064;-69
2021/04/28 02:13:53;;;;;;;10.90;5.30;;;;;;;-139.48;100.00;61774.03;5019033;28;20052;-68
2021/04/28 02:16:38;;;;;;;10.30;5.38;;;;;;;-139.48;100.00;61774.03;5018520;28;20072;-68
2021/04/28 02:19:22;;;;;;;9.65;5.55;;;;;;;-139.48;100.00;61774.03;5020648;28;20040;-68
2021/04/28 02:22:06;;;;;;;;;;;;;;;-139.48;100.00;61774.03;5023076;28;20068;-66
2021/04/28 02:24:50;;;;;;;9.52;5.68;;;;;;;-139.48;100.00;61774.03;5022528;28;19979;-69
2021/04/28 02:27:34;;;;;;;10.00;5.88;;;;;;;-139.48;100.00;61774.03;5022174;28;20065;-69
2021/04/28 02:30:24;;;;;;;12.88;5.90;;;;;;;-139.48;100.00;61774.03;5022223;28;20048;-69
2021/04/28 02:33:08;;;;;;;9.73;6.00;;;;;;;-139.48;100.00;61774.03;5021981;28;20413;-69
2021/04/28 02:35:55;;;;;;;10.27;5.68;;;;;;;-139.48;100.00;61774.03;5022525;28;20048;-69
2021/04/28 02:38:45;;;;;;;7.57;5.30;;;;;;;-139.48;100.00;61774.03;5021934;28;20136;-69
2021/04/28 02:41:29;;;;;;;15.85;6.45;;;;;;;-139.48;100.00;61774.03;5021790;28;20056;-66
2021/04/28 02:44:16;;;;;;;9.10;5.40;;;;;;;-139.48;100.00;61774.03;5042589;23;20106;-67
2021/04/28 02:47:02;;;;;;;10.05;6.03;;;;;;;-139.48;100.00;61774.03;5021984;28;20049;-67
2021/04/28 02:49:47;;;;;;;9.57;5.13;;;;;;;-139.48;100.00;61774.03;5021673;28;20053;-67
2021/04/28 02:52:31;;;;;;;9.73;5.20;;;;;;;-139.48;100.00;61774.03;5021670;28;20051;-68
2021/04/28 02:55:16;;;;;;;9.05;5.63;;;;;;;-139.48;100.00;61774.03;5007842;28;20104;-67
2021/04/28 02:58:00;;;;;;;7.93;5.20;;;;;;;-139.48;100.00;61774.03;5021886;28;20125;-67
2021/04/28 03:00:44;;;;;;;11.57;6.05;;;;;;;-139.48;100.00;61774.03;5021838;28;20504;-67
2021/04/28 03:03:28;;;;;;;7.72;5.13;;;;;;;-139.48;100.00;61774.03;5021646;28;20106;-67
2021/04/28 03:06:13;;;;;;;9.70;5.38;;;;;;;-139.48;100.00;61774.03;5021722;28;20087;-66
2021/04/28 03:08:58;;;;;;;9.60;5.88;;;;;;;-139.48;100.00;61774.03;5021670;28;20051;-67
2021/04/28 03:11:43;;;;;;;7.28;5.40;;;;;;;-139.48;100.00;61774.03;5021823;28;20438;-67
2021/04/28 03:14:27;;;;;;;9.88;5.72;;;;;;;-139.48;100.00;61774.03;5021250;28;20096;-67
2021/04/28 03:17:11;;;;;;;9.77;5.63;;;;;;;-139.48;100.00;61774.03;5021219;28;20052;-67
2021/04/28 03:19:57;;;;;;;9.57;6.03;;;;;;;-139.48;100.00;61774.03;5021679;28;20060;-67
2021/04/28 03:22:41;;;;;;;11.18;5.40;;;;;;;-139.48;100.00;61774.03;5021009;28;20133;-67
2021/04/28 03:25:25;;;;;;;8.73;5.85;;;;;;;-139.48;100.00;61774.03;5021424;28;20601;-67
2021/04/28 03:28:09;;;;;;;10.25;5.78;;;;;;;-139.48;100.00;61774.03;5021294;28;20514;-67
2021/04/28 03:30:54;;;;;;;10.75;5.95;;;;;;;-139.48;100.00;61774.03;5021107;28;20048;-67
2021/04/28 03:33:38;;;;;;;;;;;;;;;-139.48;100.00;61774.03;5021528;28;20477;-67
2021/04/28 03:36:22;;;;;;;10.33;5.47;;;;;;;-139.48;100.00;61774.03;5021132;28;19919;-67
2021/04/28 03:39:06;;;;;;;13.77;6.10;;;;;;;-139.48;100.00;61774.03;5021113;28;20667;-67
2021/04/28 03:41:50;;;;;;;9.63;5.50;;;;;;;-139.48;100.00;61774.03;5021339;28;20108;-67
2021/04/28 03:44:34;;;;;;;9.32;5.90;;;;;;;-139.48;100.00;61774.03;5020665;28;20056;-67
2021/04/28 03:47:19;;;;;;;7.38;5.72;;;;;;;-139.48;100.00;61774.03;5020653;28;20418;-67
2021/04/28 03:50:05;;;;;;;11.18;5.88;;;;;;;-139.48;100.00;61774.03;5020914;28;20049;-67
2021/04/28 03:52:48;;;;;;;8.30;5.40;;;;;;;-139.48;100.00;61774.03;5020709;28;20244;-67
2021/04/28 03:55:32;;;;;;;9.98;5.38;;;;;;;-139.48;100.00;61774.03;5020991;28;20552;-68
2021/04/28 03:58:16;;;;;;;8.05;5.60;;;;;;;-139.48;100.00;61774.03;5020744;28;20080;-67
2021/04/28 04:01:00;;;;;;;8.20;6.05;;;;;;;-139.48;100.00;61774.03;5020338;28;20111;-67
2021/04/28 04:03:44;;;;;;;12.43;6.63;;;;;;;-139.48;100.00;61774.03;5020511;28;20088;-67
2021/04/28 04:06:28;;;;;;;9.45;6.40;;;;;;;-139.48;100.00;61774.03;5020613;28;20048;-67
2021/04/28 04:09:12;;;;;;;9.63;6.18;;;;;;;-139.48;100.00;61774.03;5020180;28;20179;-67
2021/04/28 04:11:56;;;;;;;12.80;6.40;;;;;;;-139.48;100.00;61774.03;5020440;28;20052;-67
2021/04/28 04:14:40;;;;;;;8.50;6.15;;;;;;;-139.48;100.00;61774.03;5020242;28;20049;-67
2021/04/28 04:17:24;;;;;;;8.27;6.00;;;;;;;-139.48;100.00;61774.03;5020315;28;20091;-67
2021/04/28 04:20:08;;;;;;;8.07;5.55;;;;;;;-139.48;100.00;61774.03;5019979;28;20164;-67
2021/04/28 04:22:52;;;;;;;9.68;5.47;;;;;;;-139.48;100.00;61774.03;5020118;28;20048;-66
2021/04/28 04:25:36;;;;;;;7.82;5.90;;;;;;;-139.48;100.00;61774.03;5020443;28;20063;-67
2021/04/28 04:28:20;;;;;;;10.27;6.25;;;;;;;-139.48;100.00;61774.03;5020124;28;20052;-67
2021/04/28 04:31:04;;;;;;;9.18;5.63;;;;;;;-139.48;100.00;61774.03;5020098;28;20171;-67
2021/04/28 04:33:48;;;;;;;11.07;6.00;;;;;;;-139.48;100.00;61774.03;5019808;28;20048;-67
2021/04/28 04:36:31;;;;;;;8.52;5.47;;;;;;;-139.48;100.00;61774.03;5034220;28;20111;-67
2021/04/28 04:39:15;;;;;;;7.53;5.97;;;;;;;-139.48;100.00;61774.03;5034616;28;20059;-67
2021/04/28 04:41:59;;;;;;;11.95;6.95;;;;;;;-139.48;100.00;61774.03;5034127;28;20048;-67
2021/04/28 04:44:43;;;;;;;9.85;6.38;;;;;;;-139.48;100.00;61774.03;5034526;28;20425;-67
2021/04/28 04:47:27;;;;;;;10.00;6.18;;;;;;;-139.48;100.00;61774.03;5020084;28;20124;-67
2021/04/28 04:50:12;;;;;;;7.78;5.50;;;;;;;-139.48;100.00;61774.03;5034390;28;20422;-67
2021/04/28 04:52:56;;;;;;;9.32;6.63;;;;;;;-139.48;100.00;61774.03;5033285;28;20179;-67
2021/04/28 04:55:40;;;;;;;10.18;6.55;;;;;;;-139.48;100.00;61774.03;5019529;28;20445;-67
2021/04/28 04:58:24;;;;;;;8.43;6.10;;;;;;;-139.48;100.00;61774.03;5019707;28;20175;-67
2021/04/28 05:01:08;;;;;;;10.35;6.05;;;;;;;-139.48;100.00;61774.03;5033399;28;20487;-67
2021/04/28 05:03:52;;;;;;;10.85;6.40;;;;;;;-139.48;100.00;61774.03;5034331;28;20099;-66
2021/04/28 05:06:35;;;;;;;8.95;6.47;;;;;;;-139.48;100.00;61774.03;5033391;28;20044;-67
2021/04/28 05:09:21;;;;;;;9.30;5.88;;;;;;;-139.48;100.00;61774.03;5033001;28;20541;-67
2021/04/28 05:12:05;;;;;;;12.48;6.35;;;;;;;-139.48;100.00;61774.03;5019076;28;20056;-66
2021/04/28 05:14:49;;;;;;;13.02;6.85;;;;;;;-139.48;100.00;61774.03;5033169;28;20048;-67
2021/04/28 05:17:33;;;;;;;;;;;;;;;-139.48;100.00;61774.03;5033300;28;20049;-66
2021/04/28 05:20:17;;;;;;;9.75;6.03;;;;;;;-139.48;100.00;61774.03;5033165;28;19947;-66
2021/04/28 05:23:01;;;;;;;8.43;5.95;;;;;;;-139.48;100.00;61774.03;5033012;28;20154;-67
2021/04/28 05:25:45;;;;;;;12.60;6.43;;;;;;;-139.48;100.00;61774.03;5018794;28;20470;-67
2021/04/28 05:28:29;;;;;;;13.68;6.75;;;;;;;-139.48;100.00;61774.03;5019261;28;20048;-67
2021/04/28 05:31:13;;;;;;;9.27;6.78;;;;;;;-139.48;100.00;61774.03;5019266;28;20114;-67
2021/04/28 05:33:58;;;;;;;8.38;6.10;;;;;;;-139.48;100.00;61774.03;5018685;28;20094;-67
2021/04/28 05:36:42;;;;;;;11.95;5.88;;;;;;;-139.48;100.00;61774.03;5018841;28;20102;-67
2021/04/28 05:39:26;;;;;;;9.40;5.90;;;;;;;-139.48;100.00;61774.03;5032842;28;20494;-67
2021/04/28 05:42:10;;;;;;;10.18;6.50;;;;;;;-139.48;100.00;61774.03;5018633;28;20107;-67
2021/04/28 05:44:55;;;;;;;12.63;6.95;;;;;;;-139.48;100.00;61774.03;5018747;28;20055;-67
2021/04/28 05:47:38;;;;;;;11.27;6.40;;;;;;;-139.48;100.00;61774.03;5018519;28;20052;-67
2021/04/28 05:50:22;;;;;;;11.85;7.03;;;;;;;-139.48;100.00;61774.03;5018502;28;20047;-67
2021/04/28 05:53:07;;;;;;;13.27;7.57;;;;;;;-139.48;100.00;61774.03;5017941;28;20457;-66
2021/04/28 05:55:51;;;;;;;11.00;6.82;;;;;;;-139.48;100.00;61774.03;5018423;28;20056;-67
2021/04/28 05:58:35;;;;;;;11.38;7.28;;;;;;;-139.48;100.00;61774.03;5018610;28;20128;-67
2021/04/28 06:01:19;;;;;;;15.05;7.38;;;;;;;-139.48;100.00;61774.03;5018573;28;20056;-67
2021/04/28 06:04:04;;;;;;;13.30;7.00;;;;;;;-139.48;100.00;61774.03;5018228;28;20128;-67
2021/04/28 06:06:48;;;;;;;16.20;7.15;;;;;;;-139.48;100.00;61774.03;5018516;28;20133;-66
2021/04/28 06:09:32;;;;;;;11.93;6.57;;;;;;;-139.48;100.00;61774.03;5018438;28;20520;-67
2021/04/28 06:12:16;;;;;;;11.82;7.60;;;;;;;-139.48;100.00;61774.03;5018475;28;20048;-67
2021/04/28 06:15:01;;;;;;;13.45;8.05;;;;;;;-139.48;100.00;61774.03;5018380;28;20060;-67
2021/04/28 06:17:45;;;;;;;;;;;;;;;-139.48;100.00;61774.03;5018900;28;20048;-67
2021/04/28 06:20:29;;;;;;;14.68;8.60;;;;;;;-139.48;100.00;61774.03;5018360;28;20352;-67
2021/04/28 06:23:13;;;;;;;14.00;8.02;;;;;;;-139.48;100.00;61774.03;5018333;28;20052;-67
2021/04/28 06:25:57;;;;;;;16.63;8.32;;;;;;;-139.48;100.00;61774.03;5018671;28;20543;-67
2021/04/28 06:28:42;;;;;;;11.70;7.55;;;;;;;-139.48;100.00;61774.03;5018310;28;20076;-67
2021/04/28 06:31:26;;;;;;;15.18;8.60;;;;;;;-139.48;100.00;61774.03;5018419;28;20501;-67
2021/04/28 06:34:10;;;;;;;16.58;7.65;;;;;;;-139.48;100.00;61774.03;5017985;28;20064;-67
2021/04/28 06:36:54;;;;;;;11.73;8.10;;;;;;;-139.48;100.00;61774.03;5018497;28;20084;-67
2021/04/28 06:39:38;;;;;;;11.32;7.20;;;;;;;-139.48;100.00;61774.03;5017951;28;20063;-66
2021/04/28 06:42:22;;;;;;;11.25;7.93;;;;;;;-139.48;100.00;61774.03;5018219;28;20048;-67
2021/04/28 06:45:06;;;;;;;12.75;8.68;;;;;;;-139.48;100.00;61774.03;5017951;28;20048;-67
2021/04/28 06:47:51;;;;;;;13.63;7.90;;;;;;;-139.48;100.00;61774.03;5018240;28;20056;-67
2021/04/28 06:50:35;;;;;;;14.80;8.18;;;;;;;-139.48;100.00;61774.03;5017753;28;20461;-67
2021/04/28 06:53:19;;;;;;;11.98;7.90;;;;;;;-139.48;100.00;61774.03;5018161;28;20047;-66
2021/04/28 06:56:03;;;;;;;;;;;;;;;-139.48;100.00;61774.03;5018507;28;20053;-67
2021/04/28 06:58:49;;;;;;;11.85;8.00;;;;;;;-139.48;100.00;61774.03;5017912;28;20012;-66
2021/04/28 07:01:33;;;;;;;13.60;8.25;;;;;;;-139.48;100.00;61774.03;5031728;28;20088;-67
2021/04/28 07:04:21;;;;;;;15.93;8.13;;;;;;;-139.48;100.00;61774.03;5018487;28;20107;-67
2021/04/28 07:07:05;;;;;;;15.77;8.50;;;;;;;-139.48;100.00;61774.03;5021387;28;20055;-67
2021/04/28 07:09:49;;;;;;;21.38;7.88;;;;;;;-139.48;100.00;61774.03;5021727;28;20045;-67
2021/04/28 07:12:34;;;;;;;11.73;8.45;;;;;;;-139.48;100.00;61774.03;5021451;28;20064;-67
2021/04/28 07:15:17;;;;;;;;;;;;;;;-139.48;100.00;61774.03;5021950;28;20043;-67
2021/04/28 07:18:03;;;;;;;16.20;8.02;;;;;;;-139.48;100.00;61774.03;5021510;28;20319;-66
2021/04/28 07:20:47;;;;;;;14.65;7.82;;;;;;;-139.48;100.00;61774.03;5021293;28;20087;-66
2021/04/28 07:23:31;;;;;;;12.50;7.95;;;;;;;-139.48;100.00;61774.03;5036172;28;20047;-66
2021/04/28 07:26:15;;;;;;;14.73;8.32;;;;;;;-139.48;100.00;61774.03;5021253;28;20103;-66
2021/04/28 07:29:02;;;;;;;13.93;8.15;;;;;;;-139.48;100.00;61774.03;5021288;28;20056;-66
2021/04/28 07:31:46;;;;;;;13.48;8.82;;;;;;;-139.48;100.00;61774.03;5021728;28;20056;-67
2021/04/28 07:34:30;;;;;;;14.40;8.60;;;;;;;-139.48;100.00;61774.03;5020831;28;20525;-66
2021/04/28 07:37:14;;;;;;;15.82;8.25;;;;;;;-139.48;100.00;61774.03;5021406;28;20048;-67
2021/04/28 07:39:58;;;;;;;12.35;7.93;;;;;;;-139.48;100.00;61774.03;5020887;28;20573;-67
2021/04/28 07:42:42;;;;;;;14.65;7.90;;;;;;;-139.48;100.00;61774.03;5021069;28;20057;-67
2021/04/28 07:45:26;;;;;;;;;;;;;;;-139.48;100.00;61774.03;5021560;28;20414;-67
2021/04/28 07:48:12;;;;;;;14.53;8.27;;;;;;;-139.48;100.00;61774.03;5020980;28;19924;-67
2021/04/28 07:50:56;;;;;;;20.58;8.80;;;;;;;-139.48;100.00;61774.03;5021029;28;20102;-67
2021/04/28 07:53:40;;;;;;;;;;;;;;;-139.48;100.00;61774.03;5021281;28;20052;-67
2021/04/28 07:56:24;;;;;;;12.63;8.35;;;;;;;-139.48;100.00;61774.03;5020790;28;19920;-67
2021/04/28 07:59:08;;;;;;;12.50;7.93;;;;;;;-139.48;100.00;61774.03;5020839;28;20124;-66
2021/04/28 08:01:52;;;;;;;;;;;;;;;-139.48;100.00;61774.03;5020907;28;20067;-67
2021/04/28 08:04:38;;;;;;;17.80;8.98;;;;;;;-139.48;100.00;61774.03;5020907;28;19920;-66
2021/04/28 08:07:22;;;;;;;12.27;7.85;;;;;;;-139.48;100.00;61774.03;5020582;28;20099;-67
2021/04/28 08:10:07;;;;;;;11.77;8.05;;;;;;;-139.48;100.00;61774.03;5020200;28;20055;-67
2021/04/28 08:12:51;;;;;;;17.63;9.50;;;;;;;-139.48;100.00;61774.03;5020326;28;20131;-66
2021/04/28 08:15:36;;;;;;;15.73;9.23;;;;;;;-139.48;100.00;61774.03;5020148;28;20056;-67
2021/04/28 08:18:21;;;;;;;15.45;9.07;;;;;;;-139.48;100.00;61774.03;5020315;28;20131;-66
2021/04/28 08:21:05;;;;;;;15.05;9.30;;;;;;;-139.48;100.00;61774.03;5020298;28;20493;-67
2021/04/28 08:23:48;;;;;;;18.88;9.55;;;;;;;-139.48;100.00;61774.03;5020310;28;20045;-67
2021/04/28 08:26:32;;;;;;;14.75;9.07;;;;;;;-139.48;100.00;61774.03;5020552;28;20059;-66
2021/04/28 08:29:16;;;;;;;17.80;9.85;;;;;;;-139.48;100.00;61774.03;5019861;28;20049;-66
2021/04/28 08:32:00;;;;;;;19.27;9.25;;;;;;;-139.48;100.00;61774.03;5019849;28;20052;-67
2021/04/28 08:34:45;;;;;;;;;;;;;;;-139.48;100.00;61774.03;5020556;28;20044;-66
2021/04/28 08:37:29;;;;;;;21.85;10.40;;;;;;;-139.48;100.00;61774.03;5020422;28;19963;-67
2021/04/28 08:40:15;;;;;;;23.10;10.85;;;;;;;-139.48;100.00;61774.03;5019924;28;20414;-67
2021/04/28 08:43:00;;;;;;;21.73;9.88;;;;;;;-139.48;100.00;61774.03;5019509;28;20099;-67
2021/04/28 08:45:44;;;;;;;20.58;11.02;;;;;;;-139.48;100.00;61774.03;5019873;28;20140;-67
2021/04/28 08:48:29;;;;;;;23.63;11.48;;;;;;;-139.48;100.00;61774.03;5019513;28;20053;-67
2021/04/28 08:51:18;;;;;;;19.15;11.23;;;;;;;-139.48;100.00;61774.03;5019469;28;20096;-67
2021/04/28 08:54:03;;;;;;;17.92;10.93;;;;;;;-139.48;100.00;61774.03;5019493;28;20102;-66
2021/04/28 08:56:51;;;;;;;20.90;11.48;;;;;;;-139.48;100.00;61774.03;5019644;28;20095;-66
2021/04/28 08:59:35;;;;;;;22.05;11.15;;;;;;;-139.48;100.00;61774.03;5019623;28;20044;-67
2021/04/28 09:02:22;;;;;;;19.88;11.30;;;;;;;-139.48;100.00;61774.03;5019233;28;20100;-67
2021/04/28 09:05:14;;;;;;;20.17;11.93;;;;;;;-139.48;100.00;61774.03;5019769;28;20095;-67
2021/04/28 09:07:58;;;;;;;19.13;11.40;;;;;;;-139.48;100.00;61774.03;5019145;28;20048;-66
2021/04/28 09:10:43;;;;;;;17.73;11.15;;;;;;;-139.48;100.00;61774.03;5019433;28;20092;-67
2021/04/28 09:13:26;;;;;;;17.83;10.77;;;;;;;-139.48;100.00;61774.03;5019569;28;20148;-67
2021/04/28 09:16:15;;;;;;;15.93;10.60;;;;;;;-139.48;100.00;61774.03;5019057;28;20049;-67
2021/04/28 09:18:59;;;;;;;25.95;10.95;;;;;;;-139.48;100.00;61774.03;5019642;28;20179;-67
2021/04/28 09:21:49;;;;;;;25.27;12.32;;;;;;;-139.48;100.00;61774.03;5019537;28;20056;-67
2021/04/28 09:24:45;;;;;;;25.60;11.93;;;;;;;-139.48;100.00;61774.03;5019200;28;20047;-67
2021/04/28 09:27:34;;;;;;;20.75;11.75;;;;;;;-139.48;100.00;61774.03;5018951;28;20047;-67
2021/04/28 09:30:23;;;;;;;20.08;11.13;;;;;;;-139.48;100.00;61774.03;5019239;28;20103;-67
2021/04/28 09:33:06;;;;;;;22.75;11.30;;;;;;;-139.48;100.00;61774.03;5005180;28;20060;-67
2021/04/28 09:36:00;;;;;;;19.27;11.52;;;;;;;-139.48;100.00;61774.03;5018996;28;20051;-67
2021/04/28 09:38:51;;;;;;;21.25;11.68;;;;;;;-139.48;100.00;61774.03;5018878;28;20544;-67
2021/04/28 09:41:40;;;;;;;17.95;11.40;;;;;;;-139.48;100.00;61774.03;5018949;28;20071;-67
2021/04/28 09:44:28;;;;;;;19.70;11.88;;;;;;;-139.48;100.00;61774.03;5018395;28;20124;-67
2021/04/28 09:47:15;;;;;;;18.08;11.30;;;;;;;-139.48;100.00;61774.03;5018902;28;20179;-67
2021/04/28 09:50:01;;;;;;;20.10;11.80;;;;;;;-139.48;100.00;61774.03;5018588;28;20545;-67
2021/04/28 09:52:45;;;;;;;18.15;10.95;;;;;;;-139.48;100.00;61774.03;5004924;28;20474;-67
2021/04/28 09:55:29;;;;;;;25.33;12.30;;;;;;;-139.48;100.00;61774.03;5032948;28;20125;-67
2021/04/28 09:58:13;;;;;;;22.55;12.65;;;;;;;-139.48;100.00;61774.03;5018395;28;20055;-67
2021/04/28 10:00:58;;;;;;;25.38;11.30;;;;;;;-139.48;100.00;61774.03;5018682;28;20052;-68
2021/04/28 10:03:44;;;;;;;18.92;11.40;;;;;;;-139.48;100.00;61774.03;5018319;28;20418;-68
2021/04/28 10:06:45;;;;;;;19.60;11.52;;;;;;;-139.48;100.00;61774.03;5018448;28;20048;-68
2021/04/28 10:09:35;;;;;;;17.15;12.20;;;;;;;-139.48;100.00;61774.03;5018697;28;20256;-65
2021/04/28 10:12:21;;;;;;;23.73;12.13;;;;;;;-139.48;100.00;61774.03;5032149;28;20414;-65
2021/04/28 10:15:06;;;;;;;19.65;12.63;;;;;;;-139.48;100.00;61774.03;5018461;28;20056;-65
2021/04/28 10:17:51;;;;;;;17.42;12.13;;;;;;;-139.48;100.00;61774.03;5018809;28;20052;-66
2021/04/28 10:20:37;;;;;;;19.30;13.27;;;;;;;-139.48;100.00;61774.03;5018256;28;20052;-65
2021/04/28 10:23:24;;;;;;;21.52;13.35;;;;;;;-139.48;100.00;61774.03;5018273;28;20056;-65
2021/04/28 10:26:08;;;;;;;16.10;12.25;;;;;;;-139.48;100.00;61774.03;5032344;28;20502;-66
2021/04/28 10:28:52;;;;;;;25.20;13.73;;;;;;;-139.48;100.00;61774.03;5018618;28;20190;-66
2021/04/28 10:31:37;;;;;;;21.33;13.68;;;;;;;-139.48;100.00;61774.03;5018273;28;20044;-65
2021/04/28 10:34:32;;;;;;;19.23;13.43;;;;;;;-139.48;100.00;61774.03;5018259;28;20068;-66
2021/04/28 10:37:18;;;;;;;16.67;11.82;;;;;;;-139.48;100.00;61774.03;5018195;28;20056;-66
2021/04/28 10:40:14;;;;;;;18.25;12.48;;;;;;;-139.48;100.00;61774.03;5019585;28;20406;-66
2021/04/28 10:43:11;;;;;;;18.45;12.68;;;;;;;-139.48;100.00;61774.03;5021840;28;20625;-66
2021/04/28 10:45:54;;;;;;;16.13;13.07;;;;;;;-139.48;100.00;61774.03;5022095;28;20095;-66
2021/04/28 10:48:40;;;;;;;16.73;12.05;;;;;;;-139.48;100.00;61774.03;5036034;28;20048;-66
2021/04/28 10:51:37;;;;;;;14.23;11.90;;;;;;;-139.48;100.00;61774.03;5036055;28;20093;-66
2021/04/28 10:54:29;;;;;;;17.45;11.80;;;;;;;-139.48;100.00;61774.03;5021650;28;20138;-66
2021/04/28 10:57:13;;;;;;;16.45;12.43;;;;;;;-139.48;100.00;61774.03;5022009;28;20072;-66
2021/04/28 10:59:57;;;;;;;16.95;12.52;;;;;;;-139.48;100.00;61774.03;5021506;28;20107;-66
2021/04/28 11:02:41;;;;;;;17.85;11.68;;;;;;;-139.48;100.00;61774.03;5021841;28;20582;-66
2021/04/28 11:05:29;;;;;;;16.20;11.88;;;;;;;-139.48;100.00;61774.03;5041888;23;20060;-69
2021/04/28 11:08:13;;;;;;;18.40;12.10;;;;;;;-139.48;100.00;61774.03;5021514;28;20055;-69
2021/04/28 11:10:57;;;;;;;16.13;11.07;;;;;;;-139.48;100.00;61774.03;5021615;28;20044;-69
2021/04/28 11:13:42;;;;;;;12.68;11.23;;;;;;;-139.48;100.00;61774.03;5021895;28;20084;-69
2021/04/28 11:16:44;;;;;;;12.85;11.10;;;;;;;-139.48;100.00;61774.03;5015574;28;20412;-69
2021/04/28 11:19:30;;;;;;;15.27;10.30;;;;;;;-139.48;100.00;61774.03;5015805;28;20076;-69
2021/04/28 11:22:21;;;;;;;13.02;9.68;;;;;;;-139.48;100.00;61774.03;5015892;28;20100;-69
2021/04/28 11:25:06;;;;;;;13.00;9.63;;;;;;;-139.48;100.00;61774.03;5015733;28;20044;-68
2021/04/28 11:28:02;;;;;;;14.43;9.45;;;;;;;-139.48;100.00;61774.03;5029236;28;20048;-68
2021/04/28 11:30:51;;;;;;;12.32;7.65;;;;;;;-139.48;100.00;61774.03;5001910;28;20044;-69
2021/04/28 11:33:36;;;;;;;12.85;8.27;;;;;;;-139.48;100.00;61774.03;5015119;28;20088;-69
2021/04/28 11:36:20;;;;;;;10.38;8.30;;;;;;;-139.48;100.00;61774.03;5015257;28;20470;-68
2021/04/28 11:39:04;;;;;;;10.23;7.88;;;;;;;-139.48;100.00;61774.03;5001370;28;20056;-68
2021/04/28 11:41:48;;;;;;;12.00;8.20;;;;;;;-139.48;100.00;61774.03;5001430;28;20103;-68
2021/04/28 11:44:32;;;;;;;13.35;8.20;;;;;;;-139.48;100.00;61774.03;5001004;28;20057;-68
2021/04/28 11:47:22;;;;;;;12.93;8.43;;;;;;;-139.48;100.00;61774.03;5014761;28;20041;-69
2021/04/28 11:50:08;;;;;;;8.90;7.65;;;;;;;-139.48;100.00;61774.03;5001036;28;20041;-69
2021/04/28 11:52:52;;;;;;;13.20;6.68;;;;;;;-139.48;100.00;61774.03;5000146;28;20056;-68
2021/04/28 11:55:40;;;;;;;9.88;5.93;;;;;;;-139.48;100.00;61774.03;5001047;28;20131;-68
2021/04/28 11:58:33;;;;;;;9.95;6.57;;;;;;;-139.48;100.00;61774.03;5014921;28;20514;-68
2021/04/28 12:01:17;;;;;;;8.95;4.95;;;;;;;-139.48;100.00;61774.03;5014961;28;20068;-69
2021/04/28 12:04:08;;;;;;;7.22;5.03;;;;;;;-139.48;100.00;61774.03;5001064;28;20111;-69
2021/04/28 12:06:53;;;;;;;7.05;5.50;;;;;;;-139.48;100.00;61774.03;5000628;28;20076;-68
2021/04/28 12:09:46;;;;;;;6.35;5.65;;;;;;;-139.48;100.00;61774.03;5001201;28;20088;-68
2021/04/28 12:12:33;;;;;;;7.75;6.47;;;;;;;-139.48;100.00;61774.03;5014416;28;20465;-69
2021/04/28 12:15:18;;;;;;;10.85;6.13;;;;;;;-139.48;100.00;61774.03;5014578;28;20049;-69
2021/04/28 12:18:03;;;;;;;9.00;5.80;;;;;;;-139.48;100.00;61774.03;5014761;28;20045;-68
2021/04/28 12:20:55;;;;;;;8.32;5.10;;;;;;;-139.48;100.00;61774.03;5000831;28;20052;-69
2021/04/28 12:23:40;;;;;;;9.20;4.97;;;;;;;-139.48;100.00;61774.03;5000349;28;20069;-69
2021/04/28 12:26:24;;;;;;;6.53;4.88;;;;;;;-139.48;100.00;61774.03;5000572;28;20052;-68